Date,TemperatureHighF,TemperatureAvgF,TemperatureLowF,DewpointHighF,DewpointAvgF,DewpointLowF,HumidityHigh,HumidityAvg,HumidityLow,PressureMaxIn,PressureMinIn,WindSpeedMaxMPH,WindSpeedAvgMPH,GustSpeedMaxMPH,PrecipitationSumIn
2013-5-6,66,62,59,61,59,54,100,91,75,0.00,40.00,10,5,16,0.00
2013-5-7,70,60,49,62,57,48,100,90,63,0.00,40.00,10,7,18,0.00
2013-5-8,71,61,50,62,57,47,100,86,58,0.00,40.00,13,8,22,0.00
2013-5-9,71,62,54,64,59,53,100,91,70,0.00,40.00,13,8,22,0.00
2013-5-10,72,65,57,64,61,57,100,90,67,0.00,40.00,11,6,19,0.00
2013-5-11,73,64,55,64,60,51,100,88,65,0.00,40.00,12,7,23,0.00
2013-5-12,74,63,55,64,59,53,100,88,70,0.00,40.00,18,8,35,0.00
2013-5-13,71,64,57,63,58,45,100,81,66,0.00,40.00,14,10,28,0.00
2013-5-14,73,65,57,60,53,45,88,65,46,0.00,40.00,19,12,32,0.00
2013-5-15,71,62,53,61,54,43,97,75,55,0.00,40.00,15,9,28,0.00
2013-5-16,73,58,54,60,32,-100,97,70,39,0.00,40.00,21,12,37,0.00
2013-5-17,73,62,53,59,47,-100,94,74,46,0.00,40.00,17,10,30,0.00
2013-5-18,71,60,51,63,56,48,98,87,58,0.00,40.00,13,7,22,0.00
2013-5-19,67,60,54,61,58,52,99,92,70,0.00,40.00,11,6,18,0.00
2013-5-20,68,59,51,61,55,46,99,88,60,0.00,40.00,12,8,18,0.00
2013-5-21,70,61,52,62,55,45,98,80,58,0.00,40.00,15,10,26,0.00
2013-5-22,69,62,52,61,57,50,97,85,66,0.00,40.00,13,7,20,0.00
2013-5-23,74,64,53,60,54,50,95,74,49,0.00,40.00,16,9,27,0.00
2013-5-24,76,64,52,61,54,46,89,73,51,0.00,40.00,22,10,33,0.00
2013-5-25,71,62,55,63,58,50,100,87,67,0.00,40.00,15,8,26,0.00
2013-5-26,73,63,56,62,57,43,100,81,54,0.00,40.00,22,10,32,0.00
2013-5-27,69,62,56,61,55,50,92,76,60,0.00,40.00,15,10,25,0.00
2013-5-28,71,61,51,64,57,48,100,88,63,0.00,40.00,14,6,23,0.00
2013-5-29,70,61,53,65,59,53,100,92,62,0.00,40.00,11,7,19,0.00
2013-5-30,70,63,53,63,58,48,100,84,47,0.00,40.00,14,9,26,0.00
2013-5-31,72,63,52,65,59,51,100,88,67,0.00,40.00,12,6,19,0.00